Ava Foss — WDF5779 — position and weather

sailwx.info

Track history (hours):
 
Tides and Currents Weather Stations Pressure Air Temp Water Temp Dewpoint Dewpoint Depression Visibility Wind Speed Wind Dir Waves Ship Positions

Ava Foss

Owner: Foss Maritime Company, Seattle, WA. More information available from US FCC via Universal Licensing System and Coast Guard Vessel Documentation Center.

Last reported at 2016-Jun-27 21:32 UTC. Time now 2016-Jun-27 22:20 UTC.
Position N 33°51' W 118°24'.

Length 10 m; draft 2.5 m.

Type: Passenger vessel. MMSI: 367467120.

Date/timePositionNaut miles runAvg speedWind from/ knotsBaromVisibWave heightAir tempDewpointWater temp
2016-Jun-27 21:32N 33°51' W 118°24'0 0.0
2016-Jun-27 20:32N 33°51' W 118°24'0 0.0
2016-Jun-27 19:32N 33°51' W 118°24'0 0.2
2016-Jun-27 18:33N 33°51' W 118°24'5 4.7
2016-Jun-27 17:33N 33°54' W 118°27'5 4.9
2016-Jun-27 16:34N 33°51' W 118°24'0 0.0
2016-Jun-27 15:33N 33°51' W 118°24'0 0.5
2016-Jun-27 14:33N 33°51' W 118°24'2 2.3
2016-Jun-27 13:33N 33°52' W 118°26'3 2.7
2016-Jun-27 12:34N 33°51' W 118°24'1 1.0
2016-Jun-27 11:34N 33°51' W 118°25'1 1.0
2016-Jun-27 10:31N 33°51' W 118°24'0 0.0
2016-Jun-27 09:28N 33°51' W 118°24'0 0.0
2016-Jun-27 08:31N 33°51' W 118°24'0 0.0
2016-Jun-27 07:31N 33°51' W 118°24'0 0.0
2016-Jun-27 06:31N 33°51' W 118°24'0 0.0
2016-Jun-27 05:31N 33°51' W 118°24'0 0.0
2016-Jun-27 04:28N 33°51' W 118°24'0 0.0
2016-Jun-27 02:25N 33°51' W 118°24'0 0.0
2016-Jun-27 01:31N 33°51' W 118°24'0 0.0
2016-Jun-27 00:31N 33°51' W 118°24'0 0.0
2016-Jun-26 23:31N 33°51' W 118°24'0 0.0
2016-Jun-26 22:31N 33°51' W 118°24'0 0.0
2016-Jun-26 21:31N 33°51' W 118°24'0 0.0
2016-Jun-26 20:31N 33°51' W 118°24'1 0.8
2016-Jun-26 18:33N 33°52' W 118°25'1 0.4
2016-Jun-26 14:28N 33°51' W 118°24'5 5.3
2016-Jun-26 13:33N 33°54' W 118°27'5 4.9
2016-Jun-26 12:33N 33°51' W 118°24'0 0.0
2016-Jun-26 11:32N 33°51' W 118°24'0 0.0
2016-Jun-26 10:32N 33°51' W 118°24'0 0.0
2016-Jun-26 09:29N 33°51' W 118°24'0 0.0
2016-Jun-26 08:32N 33°51' W 118°24'0 0.0
2016-Jun-26 07:32N 33°51' W 118°24'0 0.0
2016-Jun-26 06:32N 33°51' W 118°24'0 0.0
2016-Jun-26 05:32N 33°51' W 118°24'0 0.0
2016-Jun-26 04:32N 33°51' W 118°24'0 0.0
2016-Jun-26 03:32N 33°51' W 118°24'0 0.0
2016-Jun-26 02:32N 33°51' W 118°24'0 0.0
2016-Jun-26 01:32N 33°51' W 118°24'5 5.0
2016-Jun-26 00:32N 33°55' W 118°27'1 0.5
2016-Jun-25 23:19N 33°55' W 118°27'5 6.8
2016-Jun-25 22:33N 33°50' W 118°24'0 0.1
2016-Jun-25 21:30N 33°51' W 118°24'0 0.0
2016-Jun-25 20:33N 33°51' W 118°24'0 0.1
2016-Jun-25 19:33N 33°51' W 118°24'0 0.0
2016-Jun-25 18:29N 33°51' W 118°24'5 4.7
2016-Jun-25 17:28N 33°54' W 118°27'5 3.6
2016-Jun-25 16:08N 33°51' W 118°24'0 0.0
2016-Jun-25 15:32N 33°51' W 118°24'0 0.0
2016-Jun-25 14:32N 33°51' W 118°24'5 4.9
2016-Jun-25 13:32N 33°55' W 118°27'5 4.9
2016-Jun-25 12:31N 33°51' W 118°24'0 0.0
2016-Jun-25 11:31N 33°51' W 118°24'0 0.0
2016-Jun-25 10:31N 33°51' W 118°24'0 0.0
2016-Jun-25 09:31N 33°51' W 118°24'0 0.0
2016-Jun-25 08:31N 33°51' W 118°24'0 0.0
2016-Jun-25 07:28N 33°51' W 118°24'0 0.0
2016-Jun-25 06:25N 33°51' W 118°24'0 0.0
2016-Jun-25 05:31N 33°51' W 118°24'0 0.0
2016-Jun-25 04:31N 33°51' W 118°24'0 0.0
2016-Jun-25 03:33N 33°51' W 118°24'0 0.0
2016-Jun-25 02:33N 33°51' W 118°24'0 0.0
2016-Jun-25 01:33N 33°51' W 118°24'5 5.2
2016-Jun-25 00:33N 33°55' W 118°27'5 5.0
2016-Jun-24 23:31N 33°51' W 118°24'2 1.7
2016-Jun-24 22:33N 33°52' W 118°25'2 1.6
2016-Jun-24 21:32N 33°51' W 118°24'0 0.0
2016-Jun-24 20:32N 33°51' W 118°24'5 4.6
2016-Jun-24 19:32N 33°54' W 118°27'5 4.6
2016-Jun-24 18:32N 33°51' W 118°24'0 0.0
2016-Jun-24 17:32N 33°51' W 118°24'0 0.0
2016-Jun-24 16:32N 33°51' W 118°24'2 1.7
2016-Jun-24 15:33N 33°51' W 118°25'4 3.5
2016-Jun-24 14:32N 33°54' W 118°27'0 0.2
2016-Jun-24 13:33N 33°55' W 118°27'5 4.5
2016-Jun-24 12:28N 33°51' W 118°24'4 0.3
2016-Jun-24 00:32N 33°54' W 118°26'4 4.1
2016-Jun-23 23:33N 33°51' W 118°24'0 0.4
2016-Jun-23 22:30N 33°51' W 118°24'4 4.4
2016-Jun-23 21:30N 33°54' W 118°27'5 4.7
2016-Jun-23 20:29N 33°51' W 118°24'0 0.0
2016-Jun-23 19:32N 33°51' W 118°24'5 4.9
2016-Jun-23 18:27N 33°55' W 118°27'3 2.9
2016-Jun-23 17:23N 33°52' W 118°30'3 3.7
2016-Jun-23 16:30N 33°55' W 118°27'5 5.5
2016-Jun-23 15:33N 33°50' W 118°24'0 0.4
2016-Jun-23 14:32N 33°51' W 118°24'5 4.9
2016-Jun-23 13:32N 33°54' W 118°27'5 4.6
2016-Jun-23 12:30N 33°51' W 118°24'0 0.0
2016-Jun-23 11:33N 33°51' W 118°24'0 0.0
2016-Jun-23 10:33N 33°51' W 118°24'0 0.0
2016-Jun-23 09:33N 33°51' W 118°24'0 0.0
2016-Jun-23 08:33N 33°51' W 118°24'0 0.0
2016-Jun-23 07:33N 33°51' W 118°24'0 0.0
2016-Jun-23 05:33N 33°51' W 118°24'0 0.0
2016-Jun-23 04:33N 33°51' W 118°24'0 0.0
2016-Jun-23 03:33N 33°51' W 118°24'0 0.0
2016-Jun-23 02:33N 33°51' W 118°24'1 1.5
2016-Jun-23 01:33N 33°52' W 118°25'1 1.5
2016-Jun-23 00:33N 33°51' W 118°24'0 0.0
2016-Jun-22 23:33N 33°51' W 118°24'0 0.0
2016-Jun-22 22:33N 33°51' W 118°24'5 5.2
2016-Jun-22 21:34N 33°55' W 118°27'3 3.1
2016-Jun-22 20:33N 33°52' W 118°25'2 2.1
2016-Jun-22 19:33N 33°51' W 118°24'5 5.0
2016-Jun-22 18:33N 33°55' W 118°27'5 5.0
2016-Jun-22 17:33N 33°51' W 118°24'0 0.0
2016-Jun-22 16:33N 33°51' W 118°24'0 0.0
2016-Jun-22 15:33N 33°51' W 118°24'0 0.0
2016-Jun-22 14:33N 33°51' W 118°24'5 4.9
2016-Jun-22 13:33N 33°55' W 118°27'5 5.0
2016-Jun-22 12:33N 33°51' W 118°24'0 0.0
2016-Jun-22 11:33N 33°51' W 118°24'0 0.0
2016-Jun-22 10:33N 33°51' W 118°24'0 0.0
2016-Jun-22 09:33N 33°51' W 118°24'0 0.0
2016-Jun-22 08:33N 33°51' W 118°24'0 0.0
2016-Jun-22 07:33N 33°51' W 118°24'0 0.0
2016-Jun-22 06:30N 33°51' W 118°24'0 0.0
2016-Jun-22 05:30N 33°51' W 118°24'0 0.0
2016-Jun-22 04:23N 33°51' W 118°24'1 1.5
2016-Jun-22 03:33N 33°51' W 118°25'1 1.2
2016-Jun-22 02:33N 33°51' W 118°24'0 0.0
2016-Jun-22 01:33N 33°51' W 118°24'1 0.8
2016-Jun-22 00:33N 33°51' W 118°24'1 0.7
2016-Jun-21 23:33N 33°51' W 118°24'5 4.4
2016-Jun-21 22:25N 33°53' W 118°29'5 6.0
2016-Jun-21 21:33N 33°51' W 118°24'0 0.0
2016-Jun-21 20:33N 33°51' W 118°24'0 0.1
2016-Jun-21 18:33N 33°50' W 118°24'0 0.2
2016-Jun-21 17:33N 33°51' W 118°24'5 4.9
2016-Jun-21 16:32N 33°54' W 118°27'4 3.7
2016-Jun-21 15:33N 33°51' W 118°25'1 1.5
2016-Jun-21 14:33N 33°51' W 118°24'6 5.7
2016-Jun-21 13:33N 33°54' W 118°28'6 5.5
2016-Jun-21 12:31N 33°51' W 118°24'0 0.0
2016-Jun-21 11:22N 33°51' W 118°24'0 0.0
2016-Jun-21 10:31N 33°51' W 118°24'0 0.0
2016-Jun-21 09:31N 33°51' W 118°24'0 0.0
2016-Jun-21 08:31N 33°51' W 118°24'0 0.0
2016-Jun-21 07:31N 33°51' W 118°24'0 0.0
2016-Jun-21 06:31N 33°51' W 118°24'0 0.0
2016-Jun-21 04:34N 33°51' W 118°24'0 0.0
2016-Jun-21 03:33N 33°51' W 118°24'0 0.0
2016-Jun-21 02:32N 33°51' W 118°24'0 0.0
2016-Jun-21 01:29N 33°51' W 118°24'0 0.0
2016-Jun-21 00:29N 33°51' W 118°24'0 0.0
2016-Jun-20 23:29N 33°51' W 118°24'0 0.0
2016-Jun-20 22:33N 33°51' W 118°24'0 0.0
2016-Jun-20 21:30N 33°51' W 118°24'0 0.0
2016-Jun-20 20:30N 33°51' W 118°24'0 0.0
2016-Jun-20 19:33N 33°51' W 118°24'0 0.0
2016-Jun-20 18:33N 33°51' W 118°24'0 0.0
2016-Jun-20 17:33N 33°51' W 118°24'5 4.5
2016-Jun-20 16:33N 33°54' W 118°27'4 4.1
2016-Jun-20 15:34N 33°51' W 118°24'0 0.1
2016-Jun-20 14:34N 33°51' W 118°24'5 4.7
2016-Jun-20 13:27N 33°52' W 118°30'6 5.8
2016-Jun-20 12:29N 33°51' W 118°24'0 0.0
2016-Jun-20 11:32N 33°51' W 118°24'0 0.0
2016-Jun-20 10:32N 33°51' W 118°24'0 0.0
2016-Jun-20 09:29N 33°51' W 118°24'0 0.0
2016-Jun-20 08:32N 33°51' W 118°24'0 0.0
2016-Jun-20 07:32N 33°51' W 118°24'0 0.0
2016-Jun-20 06:32N 33°51' W 118°24'0 0.0
2016-Jun-20 05:29N 33°51' W 118°24'0 0.0
2016-Jun-20 04:26N 33°51' W 118°24'0 0.0
2016-Jun-20 03:32N 33°51' W 118°24'5 4.9
2016-Jun-20 02:33N 33°54' W 118°27'5 4.8
2016-Jun-20 01:33N 33°50' W 118°24'0 0.2
2016-Jun-20 00:33N 33°51' W 118°24'0 0.0
2016-Jun-19 23:33N 33°51' W 118°24'0 0.0
2016-Jun-19 22:33N 33°51' W 118°24'  
Track history (hours):
 
Tides and Currents Weather Stations Pressure Air Temp Water Temp Dewpoint Dewpoint Depression Visibility Wind Speed Wind Dir Waves Ship Positions

Ava Foss

Owner: Foss Maritime Company, Seattle, WA. More information available from US FCC via Universal Licensing System and Coast Guard Vessel Documentation Center.

Last reported at 2016-Jun-27 21:32 UTC. Time now 2016-Jun-27 22:20 UTC.
Position N 33°51' W 118°24'.

Length 10 m; draft 2.5 m.

Type: Passenger vessel. MMSI: 367467120.

Date/timePositionNaut miles runAvg speedWind from/ knotsBaromVisibWave heightAir tempDewpointWater temp
2016-Jun-27 21:32N 33°51' W 118°24'0 0.0
2016-Jun-27 20:32N 33°51' W 118°24'0 0.0
2016-Jun-27 19:32N 33°51' W 118°24'0 0.2
2016-Jun-27 18:33N 33°51' W 118°24'5 4.7
2016-Jun-27 17:33N 33°54' W 118°27'5 4.9
2016-Jun-27 16:34N 33°51' W 118°24'0 0.0
2016-Jun-27 15:33N 33°51' W 118°24'0 0.5
2016-Jun-27 14:33N 33°51' W 118°24'2 2.3
2016-Jun-27 13:33N 33°52' W 118°26'3 2.7
2016-Jun-27 12:34N 33°51' W 118°24'1 1.0
2016-Jun-27 11:34N 33°51' W 118°25'1 1.0
2016-Jun-27 10:31N 33°51' W 118°24'0 0.0
2016-Jun-27 09:28N 33°51' W 118°24'0 0.0
2016-Jun-27 08:31N 33°51' W 118°24'0 0.0
2016-Jun-27 07:31N 33°51' W 118°24'0 0.0
2016-Jun-27 06:31N 33°51' W 118°24'0 0.0
2016-Jun-27 05:31N 33°51' W 118°24'0 0.0
2016-Jun-27 04:28N 33°51' W 118°24'0 0.0
2016-Jun-27 02:25N 33°51' W 118°24'0 0.0
2016-Jun-27 01:31N 33°51' W 118°24'0 0.0
2016-Jun-27 00:31N 33°51' W 118°24'0 0.0
2016-Jun-26 23:31N 33°51' W 118°24'0 0.0
2016-Jun-26 22:31N 33°51' W 118°24'0 0.0
2016-Jun-26 21:31N 33°51' W 118°24'0 0.0
2016-Jun-26 20:31N 33°51' W 118°24'1 0.8
2016-Jun-26 18:33N 33°52' W 118°25'1 0.4
2016-Jun-26 14:28N 33°51' W 118°24'5 5.3
2016-Jun-26 13:33N 33°54' W 118°27'5 4.9
2016-Jun-26 12:33N 33°51' W 118°24'0 0.0
2016-Jun-26 11:32N 33°51' W 118°24'0 0.0
2016-Jun-26 10:32N 33°51' W 118°24'0 0.0
2016-Jun-26 09:29N 33°51' W 118°24'0 0.0
2016-Jun-26 08:32N 33°51' W 118°24'0 0.0
2016-Jun-26 07:32N 33°51' W 118°24'0 0.0
2016-Jun-26 06:32N 33°51' W 118°24'0 0.0
2016-Jun-26 05:32N 33°51' W 118°24'0 0.0
2016-Jun-26 04:32N 33°51' W 118°24'0 0.0
2016-Jun-26 03:32N 33°51' W 118°24'0 0.0
2016-Jun-26 02:32N 33°51' W 118°24'0 0.0
2016-Jun-26 01:32N 33°51' W 118°24'5 5.0
2016-Jun-26 00:32N 33°55' W 118°27'1 0.5
2016-Jun-25 23:19N 33°55' W 118°27'5 6.8
2016-Jun-25 22:33N 33°50' W 118°24'0 0.1
2016-Jun-25 21:30N 33°51' W 118°24'0 0.0
2016-Jun-25 20:33N 33°51' W 118°24'0 0.1
2016-Jun-25 19:33N 33°51' W 118°24'0 0.0
2016-Jun-25 18:29N 33°51' W 118°24'5 4.7
2016-Jun-25 17:28N 33°54' W 118°27'5 3.6
2016-Jun-25 16:08N 33°51' W 118°24'0 0.0
2016-Jun-25 15:32N 33°51' W 118°24'0 0.0
2016-Jun-25 14:32N 33°51' W 118°24'5 4.9
2016-Jun-25 13:32N 33°55' W 118°27'5 4.9
2016-Jun-25 12:31N 33°51' W 118°24'0 0.0
2016-Jun-25 11:31N 33°51' W 118°24'0 0.0
2016-Jun-25 10:31N 33°51' W 118°24'0 0.0
2016-Jun-25 09:31N 33°51' W 118°24'0 0.0
2016-Jun-25 08:31N 33°51' W 118°24'0 0.0
2016-Jun-25 07:28N 33°51' W 118°24'0 0.0
2016-Jun-25 06:25N 33°51' W 118°24'0 0.0
2016-Jun-25 05:31N 33°51' W 118°24'0 0.0
2016-Jun-25 04:31N 33°51' W 118°24'0 0.0
2016-Jun-25 03:33N 33°51' W 118°24'0 0.0
2016-Jun-25 02:33N 33°51' W 118°24'0 0.0
2016-Jun-25 01:33N 33°51' W 118°24'5 5.2
2016-Jun-25 00:33N 33°55' W 118°27'5 5.0
2016-Jun-24 23:31N 33°51' W 118°24'2 1.7
2016-Jun-24 22:33N 33°52' W 118°25'2 1.6
2016-Jun-24 21:32N 33°51' W 118°24'0 0.0
2016-Jun-24 20:32N 33°51' W 118°24'5 4.6
2016-Jun-24 19:32N 33°54' W 118°27'5 4.6
2016-Jun-24 18:32N 33°51' W 118°24'0 0.0
2016-Jun-24 17:32N 33°51' W 118°24'0 0.0
2016-Jun-24 16:32N 33°51' W 118°24'2 1.7
2016-Jun-24 15:33N 33°51' W 118°25'4 3.5
2016-Jun-24 14:32N 33°54' W 118°27'0 0.2
2016-Jun-24 13:33N 33°55' W 118°27'5 4.5
2016-Jun-24 12:28N 33°51' W 118°24'4 0.3
2016-Jun-24 00:32N 33°54' W 118°26'4 4.1
2016-Jun-23 23:33N 33°51' W 118°24'0 0.4
2016-Jun-23 22:30N 33°51' W 118°24'4 4.4
2016-Jun-23 21:30N 33°54' W 118°27'5 4.7
2016-Jun-23 20:29N 33°51' W 118°24'0 0.0
2016-Jun-23 19:32N 33°51' W 118°24'5 4.9
2016-Jun-23 18:27N 33°55' W 118°27'3 2.9
2016-Jun-23 17:23N 33°52' W 118°30'3 3.7
2016-Jun-23 16:30N 33°55' W 118°27'5 5.5
2016-Jun-23 15:33N 33°50' W 118°24'0 0.4
2016-Jun-23 14:32N 33°51' W 118°24'5 4.9
2016-Jun-23 13:32N 33°54' W 118°27'5 4.6
2016-Jun-23 12:30N 33°51' W 118°24'0 0.0
2016-Jun-23 11:33N 33°51' W 118°24'0 0.0
2016-Jun-23 10:33N 33°51' W 118°24'0 0.0
2016-Jun-23 09:33N 33°51' W 118°24'0 0.0
2016-Jun-23 08:33N 33°51' W 118°24'0 0.0
2016-Jun-23 07:33N 33°51' W 118°24'0 0.0
2016-Jun-23 05:33N 33°51' W 118°24'0 0.0
2016-Jun-23 04:33N 33°51' W 118°24'0 0.0
2016-Jun-23 03:33N 33°51' W 118°24'0 0.0
2016-Jun-23 02:33N 33°51' W 118°24'1 1.5
2016-Jun-23 01:33N 33°52' W 118°25'1 1.5
2016-Jun-23 00:33N 33°51' W 118°24'0 0.0
2016-Jun-22 23:33N 33°51' W 118°24'0 0.0
2016-Jun-22 22:33N 33°51' W 118°24'5 5.2
2016-Jun-22 21:34N 33°55' W 118°27'3 3.1
2016-Jun-22 20:33N 33°52' W 118°25'2 2.1
2016-Jun-22 19:33N 33°51' W 118°24'5 5.0
2016-Jun-22 18:33N 33°55' W 118°27'5 5.0
2016-Jun-22 17:33N 33°51' W 118°24'0 0.0
2016-Jun-22 16:33N 33°51' W 118°24'0 0.0
2016-Jun-22 15:33N 33°51' W 118°24'0 0.0
2016-Jun-22 14:33N 33°51' W 118°24'5 4.9
2016-Jun-22 13:33N 33°55' W 118°27'5 5.0
2016-Jun-22 12:33N 33°51' W 118°24'0 0.0
2016-Jun-22 11:33N 33°51' W 118°24'0 0.0
2016-Jun-22 10:33N 33°51' W 118°24'0 0.0
2016-Jun-22 09:33N 33°51' W 118°24'0 0.0
2016-Jun-22 08:33N 33°51' W 118°24'0 0.0
2016-Jun-22 07:33N 33°51' W 118°24'0 0.0
2016-Jun-22 06:30N 33°51' W 118°24'0 0.0
2016-Jun-22 05:30N 33°51' W 118°24'0 0.0
2016-Jun-22 04:23N 33°51' W 118°24'1 1.5
2016-Jun-22 03:33N 33°51' W 118°25'1 1.2
2016-Jun-22 02:33N 33°51' W 118°24'0 0.0
2016-Jun-22 01:33N 33°51' W 118°24'1 0.8
2016-Jun-22 00:33N 33°51' W 118°24'1 0.7
2016-Jun-21 23:33N 33°51' W 118°24'5 4.4
2016-Jun-21 22:25N 33°53' W 118°29'5 6.0
2016-Jun-21 21:33N 33°51' W 118°24'0 0.0
2016-Jun-21 20:33N 33°51' W 118°24'0 0.1
2016-Jun-21 18:33N 33°50' W 118°24'0 0.2
2016-Jun-21 17:33N 33°51' W 118°24'5 4.9
2016-Jun-21 16:32N 33°54' W 118°27'4 3.7
2016-Jun-21 15:33N 33°51' W 118°25'1 1.5
2016-Jun-21 14:33N 33°51' W 118°24'6 5.7
2016-Jun-21 13:33N 33°54' W 118°28'6 5.5
2016-Jun-21 12:31N 33°51' W 118°24'0 0.0
2016-Jun-21 11:22N 33°51' W 118°24'0 0.0
2016-Jun-21 10:31N 33°51' W 118°24'0 0.0
2016-Jun-21 09:31N 33°51' W 118°24'0 0.0
2016-Jun-21 08:31N 33°51' W 118°24'0 0.0
2016-Jun-21 07:31N 33°51' W 118°24'0 0.0
2016-Jun-21 06:31N 33°51' W 118°24'0 0.0
2016-Jun-21 04:34N 33°51' W 118°24'0 0.0
2016-Jun-21 03:33N 33°51' W 118°24'0 0.0
2016-Jun-21 02:32N 33°51' W 118°24'0 0.0
2016-Jun-21 01:29N 33°51' W 118°24'0 0.0
2016-Jun-21 00:29N 33°51' W 118°24'0 0.0
2016-Jun-20 23:29N 33°51' W 118°24'0 0.0
2016-Jun-20 22:33N 33°51' W 118°24'0 0.0
2016-Jun-20 21:30N 33°51' W 118°24'0 0.0
2016-Jun-20 20:30N 33°51' W 118°24'0 0.0
2016-Jun-20 19:33N 33°51' W 118°24'0 0.0
2016-Jun-20 18:33N 33°51' W 118°24'0 0.0
2016-Jun-20 17:33N 33°51' W 118°24'5 4.5
2016-Jun-20 16:33N 33°54' W 118°27'4 4.1
2016-Jun-20 15:34N 33°51' W 118°24'0 0.1
2016-Jun-20 14:34N 33°51' W 118°24'5 4.7
2016-Jun-20 13:27N 33°52' W 118°30'6 5.8
2016-Jun-20 12:29N 33°51' W 118°24'0 0.0
2016-Jun-20 11:32N 33°51' W 118°24'0 0.0
2016-Jun-20 10:32N 33°51' W 118°24'0 0.0
2016-Jun-20 09:29N 33°51' W 118°24'0 0.0
2016-Jun-20 08:32N 33°51' W 118°24'0 0.0
2016-Jun-20 07:32N 33°51' W 118°24'0 0.0
2016-Jun-20 06:32N 33°51' W 118°24'0 0.0
2016-Jun-20 05:29N 33°51' W 118°24'0 0.0
2016-Jun-20 04:26N 33°51' W 118°24'0 0.0
2016-Jun-20 03:32N 33°51' W 118°24'5 4.9
2016-Jun-20 02:33N 33°54' W 118°27'5 4.8
2016-Jun-20 01:33N 33°50' W 118°24'0 0.2
2016-Jun-20 00:33N 33°51' W 118°24'0 0.0
2016-Jun-19 23:33N 33°51' W 118°24'0 0.0
2016-Jun-19 22:33N 33°51' W 118°24'  

Dump ship's entire track history